sensor_id;sensor_type;location;lat;lon;timestamp;P1;durP1;ratioP1;P2;durP2;ratioP2
72639;SDS011;60683;51.730;8.762;2024-02-26T00:02:29;1.52;;;0.70;;
72639;SDS011;60683;51.730;8.762;2024-02-26T00:05:15;0.35;;;0.15;;
72639;SDS011;60683;51.730;8.762;2024-02-26T00:08:01;0.90;;;0.40;;
72639;SDS011;60683;51.730;8.762;2024-02-26T00:10:46;1.10;;;0.45;;
72639;SDS011;60683;51.730;8.762;2024-02-26T00:13:31;0.98;;;0.55;;
72639;SDS011;60683;51.730;8.762;2024-02-26T00:16:17;1.60;;;0.82;;
72639;SDS011;60683;51.730;8.762;2024-02-26T00:19:03;2.83;;;1.08;;
72639;SDS011;60683;51.730;8.762;2024-02-26T00:21:49;2.25;;;1.02;;
72639;SDS011;60683;51.730;8.762;2024-02-26T00:24:35;1.92;;;0.80;;
72639;SDS011;60683;51.730;8.762;2024-02-26T00:27:20;2.10;;;1.10;;
72639;SDS011;60683;51.730;8.762;2024-02-26T00:30:06;1.60;;;0.40;;
72639;SDS011;60683;51.730;8.762;2024-02-26T00:32:53;0.77;;;0.47;;
72639;SDS011;60683;51.730;8.762;2024-02-26T00:35:38;0.98;;;0.52;;
72639;SDS011;60683;51.730;8.762;2024-02-26T00:38:23;0.88;;;0.30;;
72639;SDS011;60683;51.730;8.762;2024-02-26T00:41:09;2.47;;;0.80;;
72639;SDS011;60683;51.730;8.762;2024-02-26T00:43:54;1.65;;;0.50;;
72639;SDS011;60683;51.730;8.762;2024-02-26T00:46:39;2.25;;;0.80;;
72639;SDS011;60683;51.730;8.762;2024-02-26T00:49:25;2.13;;;0.63;;
72639;SDS011;60683;51.730;8.762;2024-02-26T00:52:10;1.75;;;0.30;;
72639;SDS011;60683;51.730;8.762;2024-02-26T00:54:55;0.25;;;0.20;;
72639;SDS011;60683;51.730;8.762;2024-02-26T00:57:41;1.13;;;0.50;;
72639;SDS011;60683;51.730;8.762;2024-02-26T01:00:26;1.80;;;0.95;;
72639;SDS011;60683;51.730;8.762;2024-02-26T01:03:12;1.50;;;0.70;;
72639;SDS011;60683;51.730;8.762;2024-02-26T01:05:58;1.48;;;0.60;;
72639;SDS011;60683;51.730;8.762;2024-02-26T01:08:44;2.42;;;0.68;;
72639;SDS011;60683;51.730;8.762;2024-02-26T01:11:29;2.72;;;0.77;;
72639;SDS011;60683;51.730;8.762;2024-02-26T01:14:14;2.28;;;0.90;;
72639;SDS011;60683;51.730;8.762;2024-02-26T01:16:59;3.72;;;0.82;;
72639;SDS011;60683;51.730;8.762;2024-02-26T01:19:44;2.13;;;0.82;;
72639;SDS011;60683;51.730;8.762;2024-02-26T01:22:31;1.85;;;0.63;;
72639;SDS011;60683;51.730;8.762;2024-02-26T01:25:17;1.85;;;0.80;;
72639;SDS011;60683;51.730;8.762;2024-02-26T01:28:02;1.50;;;0.65;;
72639;SDS011;60683;51.730;8.762;2024-02-26T01:30:48;2.28;;;0.70;;
72639;SDS011;60683;51.730;8.762;2024-02-26T01:33:33;1.50;;;0.73;;
72639;SDS011;60683;51.730;8.762;2024-02-26T01:36:18;2.40;;;0.90;;
72639;SDS011;60683;51.730;8.762;2024-02-26T01:39:05;1.98;;;0.60;;
72639;SDS011;60683;51.730;8.762;2024-02-26T01:41:51;1.38;;;0.80;;
72639;SDS011;60683;51.730;8.762;2024-02-26T01:44:36;2.28;;;1.00;;
72639;SDS011;60683;51.730;8.762;2024-02-26T01:47:22;2.00;;;0.80;;
72639;SDS011;60683;51.730;8.762;2024-02-26T01:50:07;2.42;;;0.80;;
72639;SDS011;60683;51.730;8.762;2024-02-26T01:52:53;2.78;;;0.90;;
72639;SDS011;60683;51.730;8.762;2024-02-26T01:55:41;1.15;;;0.52;;
72639;SDS011;60683;51.730;8.762;2024-02-26T01:58:27;1.38;;;0.68;;
72639;SDS011;60683;51.730;8.762;2024-02-26T02:01:14;1.85;;;0.88;;
72639;SDS011;60683;51.730;8.762;2024-02-26T02:04:01;0.75;;;0.20;;
72639;SDS011;60683;51.730;8.762;2024-02-26T02:06:46;0.82;;;0.40;;
72639;SDS011;60683;51.730;8.762;2024-02-26T02:09:33;0.30;;;0.13;;
72639;SDS011;60683;51.730;8.762;2024-02-26T02:12:20;1.10;;;0.47;;
72639;SDS011;60683;51.730;8.762;2024-02-26T02:15:06;0.98;;;0.50;;
72639;SDS011;60683;51.730;8.762;2024-02-26T02:17:52;0.63;;;0.13;;
72639;SDS011;60683;51.730;8.762;2024-02-26T02:20:39;0.98;;;0.40;;
72639;SDS011;60683;51.730;8.762;2024-02-26T02:23:24;1.17;;;0.43;;
72639;SDS011;60683;51.730;8.762;2024-02-26T02:26:10;0.10;;;0.10;;
72639;SDS011;60683;51.730;8.762;2024-02-26T02:28:55;0.65;;;0.40;;
72639;SDS011;60683;51.730;8.762;2024-02-26T02:31:42;1.40;;;0.30;;
72639;SDS011;60683;51.730;8.762;2024-02-26T02:34:27;2.30;;;1.13;;
72639;SDS011;60683;51.730;8.762;2024-02-26T02:37:14;0.88;;;0.40;;
72639;SDS011;60683;51.730;8.762;2024-02-26T02:39:59;2.15;;;0.65;;
72639;SDS011;60683;51.730;8.762;2024-02-26T02:42:45;0.82;;;0.30;;
72639;SDS011;60683;51.730;8.762;2024-02-26T02:45:30;0.55;;;0.20;;
72639;SDS011;60683;51.730;8.762;2024-02-26T02:48:15;0.28;;;0.13;;
72639;SDS011;60683;51.730;8.762;2024-02-26T02:51:01;0.60;;;0.28;;
72639;SDS011;60683;51.730;8.762;2024-02-26T02:53:47;1.10;;;0.50;;
72639;SDS011;60683;51.730;8.762;2024-02-26T02:56:32;2.05;;;0.60;;
72639;SDS011;60683;51.730;8.762;2024-02-26T02:59:18;0.00;;;0.00;;
72639;SDS011;60683;51.730;8.762;2024-02-26T03:02:03;0.55;;;0.30;;
72639;SDS011;60683;51.730;8.762;2024-02-26T03:04:50;1.73;;;0.70;;
72639;SDS011;60683;51.730;8.762;2024-02-26T03:07:36;1.58;;;0.68;;
72639;SDS011;60683;51.730;8.762;2024-02-26T03:10:23;2.55;;;0.60;;
72639;SDS011;60683;51.730;8.762;2024-02-26T03:13:08;0.55;;;0.55;;
72639;SDS011;60683;51.730;8.762;2024-02-26T03:15:54;0.57;;;0.38;;
72639;SDS011;60683;51.730;8.762;2024-02-26T03:18:39;0.65;;;0.22;;
72639;SDS011;60683;51.730;8.762;2024-02-26T03:21:25;0.80;;;0.30;;
72639;SDS011;60683;51.730;8.762;2024-02-26T03:24:10;1.15;;;0.52;;
72639;SDS011;60683;51.730;8.762;2024-02-26T03:26:57;3.03;;;0.73;;
72639;SDS011;60683;51.730;8.762;2024-02-26T03:29:42;1.05;;;0.63;;
72639;SDS011;60683;51.730;8.762;2024-02-26T03:32:27;0.40;;;0.20;;
72639;SDS011;60683;51.730;8.762;2024-02-26T03:35:12;0.38;;;0.35;;
72639;SDS011;60683;51.730;8.762;2024-02-26T03:37:57;1.17;;;0.65;;
72639;SDS011;60683;51.730;8.762;2024-02-26T03:40:42;1.15;;;0.10;;
72639;SDS011;60683;51.730;8.762;2024-02-26T03:43:29;1.10;;;0.50;;
72639;SDS011;60683;51.730;8.762;2024-02-26T03:46:14;2.03;;;0.68;;
72639;SDS011;60683;51.730;8.762;2024-02-26T03:48:59;0.70;;;0.17;;
72639;SDS011;60683;51.730;8.762;2024-02-26T03:51:44;1.40;;;0.40;;
72639;SDS011;60683;51.730;8.762;2024-02-26T03:54:30;1.38;;;0.52;;
72639;SDS011;60683;51.730;8.762;2024-02-26T03:57:15;0.28;;;0.10;;
72639;SDS011;60683;51.730;8.762;2024-02-26T04:00:02;0.73;;;0.32;;
72639;SDS011;60683;51.730;8.762;2024-02-26T04:02:47;1.30;;;0.63;;
72639;SDS011;60683;51.730;8.762;2024-02-26T04:05:33;1.63;;;0.60;;
72639;SDS011;60683;51.730;8.762;2024-02-26T04:08:18;2.05;;;0.95;;
72639;SDS011;60683;51.730;8.762;2024-02-26T04:11:04;1.40;;;0.60;;
72639;SDS011;60683;51.730;8.762;2024-02-26T04:13:51;0.28;;;0.15;;
72639;SDS011;60683;51.730;8.762;2024-02-26T04:16:38;0.77;;;0.30;;
72639;SDS011;60683;51.730;8.762;2024-02-26T04:19:23;1.67;;;0.50;;
72639;SDS011;60683;51.730;8.762;2024-02-26T04:22:09;0.32;;;0.17;;
72639;SDS011;60683;51.730;8.762;2024-02-26T04:24:55;0.20;;;0.10;;
72639;SDS011;60683;51.730;8.762;2024-02-26T04:27:41;1.05;;;0.55;;
72639;SDS011;60683;51.730;8.762;2024-02-26T04:30:26;2.60;;;0.65;;
72639;SDS011;60683;51.730;8.762;2024-02-26T04:33:12;2.03;;;0.80;;
72639;SDS011;60683;51.730;8.762;2024-02-26T04:35:57;0.77;;;0.50;;
72639;SDS011;60683;51.730;8.762;2024-02-26T04:38:43;1.58;;;0.60;;
72639;SDS011;60683;51.730;8.762;2024-02-26T04:41:29;2.42;;;0.82;;
72639;SDS011;60683;51.730;8.762;2024-02-26T04:44:15;2.33;;;0.75;;
72639;SDS011;60683;51.730;8.762;2024-02-26T04:47:00;1.42;;;0.60;;
72639;SDS011;60683;51.730;8.762;2024-02-26T04:49:47;1.80;;;0.68;;
72639;SDS011;60683;51.730;8.762;2024-02-26T04:52:32;1.95;;;0.85;;
72639;SDS011;60683;51.730;8.762;2024-02-26T04:55:19;1.42;;;0.52;;
72639;SDS011;60683;51.730;8.762;2024-02-26T04:58:05;1.40;;;0.60;;
72639;SDS011;60683;51.730;8.762;2024-02-26T05:00:50;2.30;;;0.70;;
72639;SDS011;60683;51.730;8.762;2024-02-26T05:03:35;2.33;;;0.60;;
72639;SDS011;60683;51.730;8.762;2024-02-26T05:06:22;1.20;;;0.50;;
72639;SDS011;60683;51.730;8.762;2024-02-26T05:09:08;1.95;;;0.88;;
72639;SDS011;60683;51.730;8.762;2024-02-26T05:11:54;2.80;;;0.80;;
72639;SDS011;60683;51.730;8.762;2024-02-26T05:14:39;2.83;;;0.90;;
72639;SDS011;60683;51.730;8.762;2024-02-26T05:17:24;2.00;;;0.60;;
72639;SDS011;60683;51.730;8.762;2024-02-26T05:20:10;3.40;;;0.90;;
72639;SDS011;60683;51.730;8.762;2024-02-26T05:22:56;1.52;;;0.70;;
72639;SDS011;60683;51.730;8.762;2024-02-26T05:25:42;1.52;;;0.63;;
72639;SDS011;60683;51.730;8.762;2024-02-26T05:28:31;1.35;;;0.55;;
72639;SDS011;60683;51.730;8.762;2024-02-26T05:31:16;2.55;;;0.90;;
72639;SDS011;60683;51.730;8.762;2024-02-26T05:34:02;1.25;;;0.57;;
72639;SDS011;60683;51.730;8.762;2024-02-26T05:36:47;1.33;;;0.77;;
72639;SDS011;60683;51.730;8.762;2024-02-26T05:39:34;1.33;;;0.65;;
72639;SDS011;60683;51.730;8.762;2024-02-26T05:42:19;2.35;;;0.90;;
72639;SDS011;60683;51.730;8.762;2024-02-26T05:45:05;1.67;;;0.73;;
72639;SDS011;60683;51.730;8.762;2024-02-26T05:47:51;1.95;;;0.70;;
72639;SDS011;60683;51.730;8.762;2024-02-26T05:50:37;2.85;;;1.00;;
72639;SDS011;60683;51.730;8.762;2024-02-26T05:53:22;2.85;;;1.20;;
72639;SDS011;60683;51.730;8.762;2024-02-26T05:56:09;1.85;;;0.80;;
72639;SDS011;60683;51.730;8.762;2024-02-26T05:58:54;2.60;;;0.98;;
72639;SDS011;60683;51.730;8.762;2024-02-26T06:01:39;3.97;;;2.08;;
72639;SDS011;60683;51.730;8.762;2024-02-26T06:04:24;1.73;;;0.50;;
72639;SDS011;60683;51.730;8.762;2024-02-26T06:07:10;0.50;;;0.30;;
72639;SDS011;60683;51.730;8.762;2024-02-26T06:09:55;0.55;;;0.20;;
72639;SDS011;60683;51.730;8.762;2024-02-26T06:12:42;1.63;;;0.63;;
72639;SDS011;60683;51.730;8.762;2024-02-26T06:15:27;1.15;;;0.68;;
72639;SDS011;60683;51.730;8.762;2024-02-26T06:18:13;2.40;;;0.70;;
72639;SDS011;60683;51.730;8.762;2024-02-26T06:20:58;0.82;;;0.43;;
72639;SDS011;60683;51.730;8.762;2024-02-26T06:23:44;2.75;;;0.80;;
72639;SDS011;60683;51.730;8.762;2024-02-26T06:26:29;2.45;;;0.73;;
72639;SDS011;60683;51.730;8.762;2024-02-26T06:29:16;1.73;;;0.52;;
72639;SDS011;60683;51.730;8.762;2024-02-26T06:32:01;0.88;;;0.38;;
72639;SDS011;60683;51.730;8.762;2024-02-26T06:34:47;0.50;;;0.30;;
72639;SDS011;60683;51.730;8.762;2024-02-26T06:37:33;3.40;;;0.90;;
72639;SDS011;60683;51.730;8.762;2024-02-26T06:40:18;2.55;;;0.88;;
72639;SDS011;60683;51.730;8.762;2024-02-26T06:43:03;2.92;;;0.80;;
72639;SDS011;60683;51.730;8.762;2024-02-26T06:45:50;0.90;;;0.35;;
72639;SDS011;60683;51.730;8.762;2024-02-26T06:48:35;0.55;;;0.20;;
72639;SDS011;60683;51.730;8.762;2024-02-26T06:51:21;2.33;;;0.65;;
72639;SDS011;60683;51.730;8.762;2024-02-26T06:54:06;2.10;;;0.88;;
72639;SDS011;60683;51.730;8.762;2024-02-26T06:56:53;0.43;;;0.10;;
72639;SDS011;60683;51.730;8.762;2024-02-26T06:59:38;3.03;;;1.15;;
72639;SDS011;60683;51.730;8.762;2024-02-26T07:02:25;4.32;;;1.35;;
72639;SDS011;60683;51.730;8.762;2024-02-26T07:05:11;2.47;;;0.98;;
72639;SDS011;60683;51.730;8.762;2024-02-26T07:07:57;3.42;;;1.30;;
72639;SDS011;60683;51.730;8.762;2024-02-26T07:10:42;3.47;;;0.93;;
72639;SDS011;60683;51.730;8.762;2024-02-26T07:13:27;3.05;;;1.10;;
72639;SDS011;60683;51.730;8.762;2024-02-26T07:16:12;3.08;;;0.90;;
72639;SDS011;60683;51.730;8.762;2024-02-26T07:18:59;2.47;;;1.00;;
72639;SDS011;60683;51.730;8.762;2024-02-26T07:21:45;2.25;;;1.00;;
72639;SDS011;60683;51.730;8.762;2024-02-26T07:24:30;3.17;;;1.10;;
72639;SDS011;60683;51.730;8.762;2024-02-26T07:27:15;3.40;;;0.93;;
72639;SDS011;60683;51.730;8.762;2024-02-26T07:30:01;2.88;;;1.17;;
72639;SDS011;60683;51.730;8.762;2024-02-26T07:32:47;3.00;;;1.27;;
72639;SDS011;60683;51.730;8.762;2024-02-26T07:35:34;4.22;;;1.10;;
72639;SDS011;60683;51.730;8.762;2024-02-26T07:41:07;2.15;;;1.00;;
72639;SDS011;60683;51.730;8.762;2024-02-26T07:43:53;2.75;;;1.00;;
72639;SDS011;60683;51.730;8.762;2024-02-26T07:46:38;2.70;;;0.93;;
72639;SDS011;60683;51.730;8.762;2024-02-26T07:49:23;2.63;;;1.10;;
72639;SDS011;60683;51.730;8.762;2024-02-26T07:52:10;2.25;;;1.02;;
72639;SDS011;60683;51.730;8.762;2024-02-26T07:54:55;2.80;;;0.90;;
72639;SDS011;60683;51.730;8.762;2024-02-26T07:57:41;4.97;;;1.35;;
72639;SDS011;60683;51.730;8.762;2024-02-26T08:00:27;3.10;;;1.15;;
72639;SDS011;60683;51.730;8.762;2024-02-26T08:03:13;2.83;;;1.15;;
72639;SDS011;60683;51.730;8.762;2024-02-26T08:05:59;3.28;;;1.23;;
72639;SDS011;60683;51.730;8.762;2024-02-26T08:08:46;2.65;;;1.17;;
72639;SDS011;60683;51.730;8.762;2024-02-26T08:11:31;2.25;;;0.90;;
72639;SDS011;60683;51.730;8.762;2024-02-26T08:14:16;3.75;;;1.15;;
72639;SDS011;60683;51.730;8.762;2024-02-26T08:17:01;2.67;;;1.30;;
72639;SDS011;60683;51.730;8.762;2024-02-26T08:19:47;3.47;;;1.33;;
72639;SDS011;60683;51.730;8.762;2024-02-26T08:22:32;2.00;;;0.73;;
72639;SDS011;60683;51.730;8.762;2024-02-26T08:25:18;2.92;;;1.00;;
72639;SDS011;60683;51.730;8.762;2024-02-26T08:28:05;3.72;;;1.30;;
72639;SDS011;60683;51.730;8.762;2024-02-26T08:30:50;1.90;;;0.90;;
72639;SDS011;60683;51.730;8.762;2024-02-26T08:33:36;2.83;;;1.10;;
72639;SDS011;60683;51.730;8.762;2024-02-26T08:36:21;2.60;;;1.15;;
72639;SDS011;60683;51.730;8.762;2024-02-26T08:39:06;4.10;;;0.70;;
72639;SDS011;60683;51.730;8.762;2024-02-26T08:41:54;2.22;;;1.35;;
72639;SDS011;60683;51.730;8.762;2024-02-26T08:44:39;3.15;;;1.50;;
72639;SDS011;60683;51.730;8.762;2024-02-26T08:47:24;2.20;;;0.70;;
72639;SDS011;60683;51.730;8.762;2024-02-26T08:50:09;3.53;;;1.40;;
72639;SDS011;60683;51.730;8.762;2024-02-26T08:52:56;2.58;;;1.25;;
72639;SDS011;60683;51.730;8.762;2024-02-26T08:55:41;4.65;;;1.50;;
72639;SDS011;60683;51.730;8.762;2024-02-26T08:58:28;2.55;;;0.57;;
72639;SDS011;60683;51.730;8.762;2024-02-26T09:04:00;4.05;;;2.05;;
72639;SDS011;60683;51.730;8.762;2024-02-26T09:06:45;4.32;;;1.65;;
72639;SDS011;60683;51.730;8.762;2024-02-26T09:09:30;5.65;;;1.13;;
72639;SDS011;60683;51.730;8.762;2024-02-26T09:12:16;3.15;;;1.33;;
72639;SDS011;60683;51.730;8.762;2024-02-26T09:15:03;3.83;;;1.40;;
72639;SDS011;60683;51.730;8.762;2024-02-26T09:17:49;4.65;;;1.77;;
72639;SDS011;60683;51.730;8.762;2024-02-26T09:20:35;6.22;;;1.73;;
72639;SDS011;60683;51.730;8.762;2024-02-26T09:23:21;2.75;;;1.10;;
72639;SDS011;60683;51.730;8.762;2024-02-26T09:26:07;3.97;;;1.45;;
72639;SDS011;60683;51.730;8.762;2024-02-26T09:28:53;1.45;;;0.68;;
72639;SDS011;60683;51.730;8.762;2024-02-26T09:31:40;3.15;;;1.63;;
72639;SDS011;60683;51.730;8.762;2024-02-26T09:34:25;4.07;;;1.65;;
72639;SDS011;60683;51.730;8.762;2024-02-26T09:37:11;4.30;;;1.30;;
72639;SDS011;60683;51.730;8.762;2024-02-26T09:39:57;2.45;;;1.00;;
72639;SDS011;60683;51.730;8.762;2024-02-26T09:42:43;5.82;;;1.58;;
72639;SDS011;60683;51.730;8.762;2024-02-26T09:45:30;3.25;;;1.50;;
72639;SDS011;60683;51.730;8.762;2024-02-26T09:48:19;1.90;;;0.65;;
72639;SDS011;60683;51.730;8.762;2024-02-26T09:51:04;3.33;;;1.20;;
72639;SDS011;60683;51.730;8.762;2024-02-26T09:53:51;3.50;;;1.20;;
72639;SDS011;60683;51.730;8.762;2024-02-26T09:56:37;2.65;;;1.38;;
72639;SDS011;60683;51.730;8.762;2024-02-26T09:59:24;2.28;;;0.80;;
72639;SDS011;60683;51.730;8.762;2024-02-26T10:02:11;2.65;;;1.17;;
72639;SDS011;60683;51.730;8.762;2024-02-26T10:04:59;3.58;;;1.13;;
72639;SDS011;60683;51.730;8.762;2024-02-26T10:07:48;2.83;;;1.10;;
72639;SDS011;60683;51.730;8.762;2024-02-26T10:10:35;2.30;;;1.00;;
72639;SDS011;60683;51.730;8.762;2024-02-26T10:13:22;4.15;;;1.10;;
72639;SDS011;60683;51.730;8.762;2024-02-26T10:16:08;2.42;;;1.20;;
72639;SDS011;60683;51.730;8.762;2024-02-26T10:18:54;4.05;;;1.55;;
72639;SDS011;60683;51.730;8.762;2024-02-26T10:21:40;4.22;;;1.40;;
72639;SDS011;60683;51.730;8.762;2024-02-26T10:24:28;3.35;;;1.52;;
72639;SDS011;60683;51.730;8.762;2024-02-26T10:27:15;3.13;;;1.50;;
72639;SDS011;60683;51.730;8.762;2024-02-26T10:30:01;2.15;;;0.85;;
72639;SDS011;60683;51.730;8.762;2024-02-26T10:32:48;2.75;;;1.05;;
72639;SDS011;60683;51.730;8.762;2024-02-26T10:35:33;2.05;;;1.05;;
72639;SDS011;60683;51.730;8.762;2024-02-26T10:38:25;2.03;;;1.00;;
72639;SDS011;60683;51.730;8.762;2024-02-26T10:41:13;3.00;;;1.00;;
72639;SDS011;60683;51.730;8.762;2024-02-26T10:43:59;3.28;;;1.30;;
72639;SDS011;60683;51.730;8.762;2024-02-26T10:46:44;3.78;;;1.98;;
72639;SDS011;60683;51.730;8.762;2024-02-26T10:49:32;1.83;;;1.05;;
72639;SDS011;60683;51.730;8.762;2024-02-26T10:52:20;3.15;;;1.15;;
72639;SDS011;60683;51.730;8.762;2024-02-26T10:55:08;3.05;;;1.65;;
72639;SDS011;60683;51.730;8.762;2024-02-26T10:58:01;3.00;;;1.65;;
72639;SDS011;60683;51.730;8.762;2024-02-26T11:00:48;2.22;;;1.00;;
72639;SDS011;60683;51.730;8.762;2024-02-26T11:03:35;2.45;;;1.20;;
72639;SDS011;60683;51.730;8.762;2024-02-26T11:06:22;4.15;;;1.70;;
72639;SDS011;60683;51.730;8.762;2024-02-26T11:09:08;3.13;;;1.25;;
72639;SDS011;60683;51.730;8.762;2024-02-26T11:11:59;3.03;;;0.98;;
72639;SDS011;60683;51.730;8.762;2024-02-26T11:14:45;2.88;;;1.30;;
72639;SDS011;60683;51.730;8.762;2024-02-26T11:17:32;3.08;;;1.40;;
72639;SDS011;60683;51.730;8.762;2024-02-26T11:20:19;1.85;;;0.85;;
72639;SDS011;60683;51.730;8.762;2024-02-26T11:23:05;4.05;;;1.90;;
72639;SDS011;60683;51.730;8.762;2024-02-26T11:25:52;4.07;;;1.58;;
72639;SDS011;60683;51.730;8.762;2024-02-26T11:28:41;2.55;;;1.20;;
72639;SDS011;60683;51.730;8.762;2024-02-26T11:31:28;6.70;;;2.42;;
72639;SDS011;60683;51.730;8.762;2024-02-26T11:34:14;3.65;;;1.88;;
72639;SDS011;60683;51.730;8.762;2024-02-26T11:37:08;3.45;;;1.92;;
72639;SDS011;60683;51.730;8.762;2024-02-26T11:39:54;5.35;;;2.58;;
72639;SDS011;60683;51.730;8.762;2024-02-26T11:42:43;3.78;;;1.50;;
72639;SDS011;60683;51.730;8.762;2024-02-26T11:45:50;3.97;;;1.65;;
72639;SDS011;60683;51.730;8.762;2024-02-26T11:48:36;3.85;;;1.73;;
72639;SDS011;60683;51.730;8.762;2024-02-26T11:51:24;7.30;;;3.10;;
72639;SDS011;60683;51.730;8.762;2024-02-26T11:54:11;4.20;;;2.00;;
72639;SDS011;60683;51.730;8.762;2024-02-26T11:56:57;7.50;;;2.25;;
72639;SDS011;60683;51.730;8.762;2024-02-26T11:59:44;6.35;;;2.72;;
72639;SDS011;60683;51.730;8.762;2024-02-26T12:02:43;4.32;;;1.98;;
72639;SDS011;60683;51.730;8.762;2024-02-26T12:05:32;6.28;;;2.83;;
72639;SDS011;60683;51.730;8.762;2024-02-26T12:08:18;4.65;;;2.42;;
72639;SDS011;60683;51.730;8.762;2024-02-26T12:11:13;3.55;;;1.95;;
72639;SDS011;60683;51.730;8.762;2024-02-26T12:13:59;3.42;;;1.67;;
72639;SDS011;60683;51.730;8.762;2024-02-26T12:16:45;4.72;;;2.25;;
72639;SDS011;60683;51.730;8.762;2024-02-26T12:19:32;5.20;;;2.03;;
72639;SDS011;60683;51.730;8.762;2024-02-26T12:22:19;6.63;;;3.33;;
72639;SDS011;60683;51.730;8.762;2024-02-26T12:25:04;5.85;;;3.00;;
72639;SDS011;60683;51.730;8.762;2024-02-26T12:27:50;3.70;;;2.38;;
72639;SDS011;60683;51.730;8.762;2024-02-26T12:30:35;5.70;;;2.78;;
72639;SDS011;60683;51.730;8.762;2024-02-26T12:33:20;6.78;;;3.10;;
72639;SDS011;60683;51.730;8.762;2024-02-26T12:36:07;6.80;;;3.83;;
72639;SDS011;60683;51.730;8.762;2024-02-26T12:38:53;5.07;;;2.65;;
72639;SDS011;60683;51.730;8.762;2024-02-26T12:41:38;4.97;;;2.53;;
72639;SDS011;60683;51.730;8.762;2024-02-26T12:44:24;7.22;;;3.17;;
72639;SDS011;60683;51.730;8.762;2024-02-26T12:47:09;8.25;;;3.85;;
72639;SDS011;60683;51.730;8.762;2024-02-26T12:50:00;5.90;;;2.75;;
72639;SDS011;60683;51.730;8.762;2024-02-26T12:52:49;8.05;;;4.30;;
72639;SDS011;60683;51.730;8.762;2024-02-26T12:55:36;6.05;;;2.95;;
72639;SDS011;60683;51.730;8.762;2024-02-26T12:58:23;5.57;;;2.63;;
72639;SDS011;60683;51.730;8.762;2024-02-26T13:01:13;4.18;;;2.22;;
72639;SDS011;60683;51.730;8.762;2024-02-26T13:04:00;3.92;;;2.10;;
72639;SDS011;60683;51.730;8.762;2024-02-26T13:06:50;5.55;;;3.28;;
72639;SDS011;60683;51.730;8.762;2024-02-26T13:09:37;5.90;;;2.50;;
72639;SDS011;60683;51.730;8.762;2024-02-26T13:12:23;4.45;;;2.33;;
72639;SDS011;60683;51.730;8.762;2024-02-26T13:15:09;7.45;;;3.13;;
72639;SDS011;60683;51.730;8.762;2024-02-26T13:18:08;6.50;;;2.67;;
72639;SDS011;60683;51.730;8.762;2024-02-26T13:20:54;7.25;;;3.35;;
72639;SDS011;60683;51.730;8.762;2024-02-26T13:23:40;6.70;;;2.78;;
72639;SDS011;60683;51.730;8.762;2024-02-26T13:26:28;5.72;;;3.00;;
72639;SDS011;60683;51.730;8.762;2024-02-26T13:29:16;5.43;;;3.10;;
72639;SDS011;60683;51.730;8.762;2024-02-26T13:32:03;5.70;;;3.55;;
72639;SDS011;60683;51.730;8.762;2024-02-26T13:34:49;3.13;;;1.90;;
72639;SDS011;60683;51.730;8.762;2024-02-26T13:37:34;6.85;;;2.85;;
72639;SDS011;60683;51.730;8.762;2024-02-26T13:40:20;10.07;;;3.33;;
72639;SDS011;60683;51.730;8.762;2024-02-26T13:43:06;7.90;;;3.08;;
72639;SDS011;60683;51.730;8.762;2024-02-26T13:45:52;7.72;;;2.78;;
72639;SDS011;60683;51.730;8.762;2024-02-26T13:48:38;4.55;;;2.00;;
72639;SDS011;60683;51.730;8.762;2024-02-26T13:51:23;5.00;;;2.78;;
72639;SDS011;60683;51.730;8.762;2024-02-26T13:54:08;6.13;;;3.28;;
72639;SDS011;60683;51.730;8.762;2024-02-26T13:56:54;5.25;;;2.90;;
72639;SDS011;60683;51.730;8.762;2024-02-26T13:59:41;5.38;;;3.10;;
72639;SDS011;60683;51.730;8.762;2024-02-26T14:02:26;5.70;;;1.23;;
72639;SDS011;60683;51.730;8.762;2024-02-26T14:05:12;7.22;;;2.17;;
72639;SDS011;60683;51.730;8.762;2024-02-26T14:07:57;4.57;;;2.20;;
72639;SDS011;60683;51.730;8.762;2024-02-26T14:10:43;6.18;;;2.45;;
72639;SDS011;60683;51.730;8.762;2024-02-26T14:13:28;5.38;;;2.47;;
72639;SDS011;60683;51.730;8.762;2024-02-26T14:16:15;5.57;;;2.60;;
72639;SDS011;60683;51.730;8.762;2024-02-26T14:19:00;3.05;;;1.30;;
72639;SDS011;60683;51.730;8.762;2024-02-26T14:21:46;3.95;;;2.08;;
72639;SDS011;60683;51.730;8.762;2024-02-26T14:24:31;5.32;;;2.25;;
72639;SDS011;60683;51.730;8.762;2024-02-26T14:27:17;3.50;;;2.15;;
72639;SDS011;60683;51.730;8.762;2024-02-26T14:30:06;6.07;;;3.03;;
72639;SDS011;60683;51.730;8.762;2024-02-26T14:32:54;4.18;;;2.10;;
72639;SDS011;60683;51.730;8.762;2024-02-26T14:35:39;4.97;;;1.70;;
72639;SDS011;60683;51.730;8.762;2024-02-26T14:38:24;4.32;;;1.95;;
72639;SDS011;60683;51.730;8.762;2024-02-26T14:41:09;4.47;;;1.63;;
72639;SDS011;60683;51.730;8.762;2024-02-26T14:43:55;6.07;;;1.63;;
72639;SDS011;60683;51.730;8.762;2024-02-26T14:46:40;5.53;;;1.75;;
72639;SDS011;60683;51.730;8.762;2024-02-26T14:49:28;3.28;;;1.75;;
72639;SDS011;60683;51.730;8.762;2024-02-26T14:52:15;4.78;;;2.22;;
72639;SDS011;60683;51.730;8.762;2024-02-26T14:55:00;4.22;;;2.15;;
72639;SDS011;60683;51.730;8.762;2024-02-26T14:57:46;2.70;;;1.40;;
72639;SDS011;60683;51.730;8.762;2024-02-26T15:00:31;5.40;;;1.63;;
72639;SDS011;60683;51.730;8.762;2024-02-26T15:03:18;2.75;;;1.20;;
72639;SDS011;60683;51.730;8.762;2024-02-26T15:06:05;4.07;;;1.90;;
72639;SDS011;60683;51.730;8.762;2024-02-26T15:08:51;3.88;;;1.85;;
72639;SDS011;60683;51.730;8.762;2024-02-26T15:11:37;5.55;;;2.55;;
72639;SDS011;60683;51.730;8.762;2024-02-26T15:14:23;3.33;;;2.03;;
72639;SDS011;60683;51.730;8.762;2024-02-26T15:17:09;4.03;;;1.85;;
72639;SDS011;60683;51.730;8.762;2024-02-26T15:19:57;3.72;;;2.13;;
72639;SDS011;60683;51.730;8.762;2024-02-26T15:22:44;2.47;;;1.10;;
72639;SDS011;60683;51.730;8.762;2024-02-26T15:25:30;5.50;;;1.70;;
72639;SDS011;60683;51.730;8.762;2024-02-26T15:28:15;5.07;;;1.88;;
72639;SDS011;60683;51.730;8.762;2024-02-26T15:31:00;4.28;;;2.20;;
72639;SDS011;60683;51.730;8.762;2024-02-26T15:33:46;5.60;;;3.25;;
72639;SDS011;60683;51.730;8.762;2024-02-26T15:36:31;6.68;;;2.63;;
72639;SDS011;60683;51.730;8.762;2024-02-26T15:39:18;5.82;;;2.15;;
72639;SDS011;60683;51.730;8.762;2024-02-26T15:42:05;8.82;;;3.95;;
72639;SDS011;60683;51.730;8.762;2024-02-26T15:44:50;12.82;;;4.90;;
72639;SDS011;60683;51.730;8.762;2024-02-26T15:47:36;4.93;;;2.85;;
72639;SDS011;60683;51.730;8.762;2024-02-26T15:50:21;5.15;;;1.60;;
72639;SDS011;60683;51.730;8.762;2024-02-26T15:53:06;3.42;;;1.50;;
72639;SDS011;60683;51.730;8.762;2024-02-26T15:55:53;4.60;;;2.38;;
72639;SDS011;60683;51.730;8.762;2024-02-26T15:58:38;3.75;;;1.63;;
72639;SDS011;60683;51.730;8.762;2024-02-26T16:01:25;3.95;;;1.48;;
72639;SDS011;60683;51.730;8.762;2024-02-26T16:20:23;4.10;;;1.52;;
72639;SDS011;60683;51.730;8.762;2024-02-26T16:23:12;3.35;;;1.52;;
72639;SDS011;60683;51.730;8.762;2024-02-26T16:25:58;3.92;;;2.58;;
72639;SDS011;60683;51.730;8.762;2024-02-26T16:28:44;5.28;;;1.40;;
72639;SDS011;60683;51.730;8.762;2024-02-26T16:31:29;6.15;;;3.15;;
72639;SDS011;60683;51.730;8.762;2024-02-26T16:34:14;4.47;;;2.17;;
72639;SDS011;60683;51.730;8.762;2024-02-26T16:37:01;5.20;;;2.15;;
72639;SDS011;60683;51.730;8.762;2024-02-26T16:39:53;2.10;;;0.90;;
72639;SDS011;60683;51.730;8.762;2024-02-26T16:42:38;5.07;;;2.30;;
72639;SDS011;60683;51.730;8.762;2024-02-26T16:45:24;5.22;;;2.80;;
72639;SDS011;60683;51.730;8.762;2024-02-26T16:48:09;7.38;;;3.08;;
72639;SDS011;60683;51.730;8.762;2024-02-26T16:50:55;5.05;;;3.28;;
72639;SDS011;60683;51.730;8.762;2024-02-26T16:53:41;6.50;;;2.88;;
72639;SDS011;60683;51.730;8.762;2024-02-26T16:56:27;7.35;;;2.85;;
72639;SDS011;60683;51.730;8.762;2024-02-26T16:59:12;5.30;;;2.83;;
72639;SDS011;60683;51.730;8.762;2024-02-26T17:01:57;6.68;;;2.17;;
72639;SDS011;60683;51.730;8.762;2024-02-26T17:04:43;5.95;;;3.53;;